sensor_id;sensor_type;location;lat;lon;timestamp;P1;durP1;ratioP1;P2;durP2;ratioP2
14992;SDS011;7592;51.088;13.732;2023-05-20T00:02:15;19.17;;;16.33;;
14992;SDS011;7592;51.088;13.732;2023-05-20T00:07:08;18.13;;;16.23;;
14992;SDS011;7592;51.088;13.732;2023-05-20T00:12:00;19.20;;;17.17;;
14992;SDS011;7592;51.088;13.732;2023-05-20T00:16:53;18.93;;;16.90;;
14992;SDS011;7592;51.088;13.732;2023-05-20T00:21:46;17.63;;;16.00;;
14992;SDS011;7592;51.088;13.732;2023-05-20T00:26:38;18.33;;;16.53;;
14992;SDS011;7592;51.088;13.732;2023-05-20T00:31:30;17.70;;;15.97;;
14992;SDS011;7592;51.088;13.732;2023-05-20T00:36:23;18.97;;;16.77;;
14992;SDS011;7592;51.088;13.732;2023-05-20T00:41:15;17.63;;;15.93;;
14992;SDS011;7592;51.088;13.732;2023-05-20T00:46:08;17.50;;;15.83;;
14992;SDS011;7592;51.088;13.732;2023-05-20T00:51:01;17.93;;;16.23;;
14992;SDS011;7592;51.088;13.732;2023-05-20T00:55:55;19.20;;;17.17;;
14992;SDS011;7592;51.088;13.732;2023-05-20T01:00:47;17.93;;;16.03;;
14992;SDS011;7592;51.088;13.732;2023-05-20T01:11:27;17.93;;;16.13;;
14992;SDS011;7592;51.088;13.732;2023-05-20T01:16:38;21.87;;;16.73;;
14992;SDS011;7592;51.088;13.732;2023-05-20T01:21:31;17.93;;;15.87;;
14992;SDS011;7592;51.088;13.732;2023-05-20T01:26:25;17.13;;;15.43;;
14992;SDS011;7592;51.088;13.732;2023-05-20T01:31:19;19.17;;;17.03;;
14992;SDS011;7592;51.088;13.732;2023-05-20T01:36:15;17.90;;;16.13;;
14992;SDS011;7592;51.088;13.732;2023-05-20T01:41:08;20.53;;;18.33;;
14992;SDS011;7592;51.088;13.732;2023-05-20T01:46:01;17.67;;;15.87;;
14992;SDS011;7592;51.088;13.732;2023-05-20T01:50:57;18.83;;;16.83;;
14992;SDS011;7592;51.088;13.732;2023-05-20T01:55:49;18.47;;;16.57;;
14992;SDS011;7592;51.088;13.732;2023-05-20T02:00:41;22.53;;;17.50;;
14992;SDS011;7592;51.088;13.732;2023-05-20T02:05:34;17.87;;;16.07;;
14992;SDS011;7592;51.088;13.732;2023-05-20T02:10:28;17.03;;;15.43;;
14992;SDS011;7592;51.088;13.732;2023-05-20T02:15:20;16.90;;;15.30;;
14992;SDS011;7592;51.088;13.732;2023-05-20T02:20:12;17.50;;;15.83;;
14992;SDS011;7592;51.088;13.732;2023-05-20T02:25:06;19.30;;;17.13;;
14992;SDS011;7592;51.088;13.732;2023-05-20T02:30:00;18.53;;;16.60;;
14992;SDS011;7592;51.088;13.732;2023-05-20T02:34:54;18.90;;;17.03;;
14992;SDS011;7592;51.088;13.732;2023-05-20T02:39:46;17.30;;;15.60;;
14992;SDS011;7592;51.088;13.732;2023-05-20T02:44:38;18.90;;;17.00;;
14992;SDS011;7592;51.088;13.732;2023-05-20T02:49:31;18.73;;;16.63;;
14992;SDS011;7592;51.088;13.732;2023-05-20T02:54:25;19.57;;;17.57;;
14992;SDS011;7592;51.088;13.732;2023-05-20T02:59:17;17.70;;;15.67;;
14992;SDS011;7592;51.088;13.732;2023-05-20T03:04:09;20.97;;;18.80;;
14992;SDS011;7592;51.088;13.732;2023-05-20T03:09:02;20.70;;;18.50;;
14992;SDS011;7592;51.088;13.732;2023-05-20T03:13:54;22.10;;;19.13;;
14992;SDS011;7592;51.088;13.732;2023-05-20T03:18:47;23.23;;;19.07;;
14992;SDS011;7592;51.088;13.732;2023-05-20T03:23:40;22.57;;;19.53;;
14992;SDS011;7592;51.088;13.732;2023-05-20T03:28:34;20.10;;;18.07;;
14992;SDS011;7592;51.088;13.732;2023-05-20T03:33:26;19.27;;;17.37;;
14992;SDS011;7592;51.088;13.732;2023-05-20T03:38:19;19.37;;;17.27;;
14992;SDS011;7592;51.088;13.732;2023-05-20T03:43:11;19.07;;;17.03;;
14992;SDS011;7592;51.088;13.732;2023-05-20T03:48:03;17.90;;;16.10;;
14992;SDS011;7592;51.088;13.732;2023-05-20T03:52:57;18.83;;;16.87;;
14992;SDS011;7592;51.088;13.732;2023-05-20T03:57:49;17.50;;;15.67;;
14992;SDS011;7592;51.088;13.732;2023-05-20T04:02:42;16.13;;;14.53;;
14992;SDS011;7592;51.088;13.732;2023-05-20T04:07:36;16.67;;;15.07;;
14992;SDS011;7592;51.088;13.732;2023-05-20T04:12:31;17.73;;;15.33;;
14992;SDS011;7592;51.088;13.732;2023-05-20T04:17:23;16.90;;;15.30;;
14992;SDS011;7592;51.088;13.732;2023-05-20T04:22:15;18.87;;;17.10;;
14992;SDS011;7592;51.088;13.732;2023-05-20T04:27:08;18.80;;;15.27;;
14992;SDS011;7592;51.088;13.732;2023-05-20T04:32:02;17.53;;;15.30;;
14992;SDS011;7592;51.088;13.732;2023-05-20T04:36:54;19.20;;;17.17;;
14992;SDS011;7592;51.088;13.732;2023-05-20T04:41:48;18.70;;;16.27;;
14992;SDS011;7592;51.088;13.732;2023-05-20T04:46:40;24.07;;;20.07;;
14992;SDS011;7592;51.088;13.732;2023-05-20T04:51:33;20.97;;;18.10;;
14992;SDS011;7592;51.088;13.732;2023-05-20T04:56:25;20.60;;;18.33;;
14992;SDS011;7592;51.088;13.732;2023-05-20T05:01:18;21.43;;;18.87;;
14992;SDS011;7592;51.088;13.732;2023-05-20T05:06:10;22.63;;;18.17;;
14992;SDS011;7592;51.088;13.732;2023-05-20T05:11:04;19.73;;;17.73;;
14992;SDS011;7592;51.088;13.732;2023-05-20T05:15:58;19.53;;;17.47;;
14992;SDS011;7592;51.088;13.732;2023-05-20T05:20:59;19.43;;;17.50;;
14992;SDS011;7592;51.088;13.732;2023-05-20T05:25:52;22.17;;;19.53;;
14992;SDS011;7592;51.088;13.732;2023-05-20T05:30:45;20.83;;;18.73;;
14992;SDS011;7592;51.088;13.732;2023-05-20T05:35:37;21.03;;;18.93;;
14992;SDS011;7592;51.088;13.732;2023-05-20T05:40:30;24.10;;;18.53;;
14992;SDS011;7592;51.088;13.732;2023-05-20T05:45:22;24.30;;;21.77;;
14992;SDS011;7592;51.088;13.732;2023-05-20T05:50:15;25.60;;;21.80;;
14992;SDS011;7592;51.088;13.732;2023-05-20T05:55:08;24.00;;;21.47;;
14992;SDS011;7592;51.088;13.732;2023-05-20T06:00:01;25.23;;;21.80;;
14992;SDS011;7592;51.088;13.732;2023-05-20T06:05:08;25.03;;;22.13;;
14992;SDS011;7592;51.088;13.732;2023-05-20T06:10:01;24.30;;;21.97;;
14992;SDS011;7592;51.088;13.732;2023-05-20T06:14:54;23.63;;;21.13;;
14992;SDS011;7592;51.088;13.732;2023-05-20T06:19:46;26.60;;;21.53;;
14992;SDS011;7592;51.088;13.732;2023-05-20T06:24:40;23.17;;;20.77;;
14992;SDS011;7592;51.088;13.732;2023-05-20T06:29:32;24.03;;;21.47;;
14992;SDS011;7592;51.088;13.732;2023-05-20T06:34:25;27.43;;;21.50;;
14992;SDS011;7592;51.088;13.732;2023-05-20T06:39:17;21.97;;;19.80;;
14992;SDS011;7592;51.088;13.732;2023-05-20T06:44:09;23.80;;;21.30;;
14992;SDS011;7592;51.088;13.732;2023-05-20T06:49:23;24.87;;;20.37;;
14992;SDS011;7592;51.088;13.732;2023-05-20T06:54:16;23.47;;;20.53;;
14992;SDS011;7592;51.088;13.732;2023-05-20T06:59:09;23.10;;;20.77;;
14992;SDS011;7592;51.088;13.732;2023-05-20T07:04:02;24.37;;;21.77;;
14992;SDS011;7592;51.088;13.732;2023-05-20T07:08:54;22.43;;;19.93;;
14992;SDS011;7592;51.088;13.732;2023-05-20T07:13:47;21.87;;;19.67;;
14992;SDS011;7592;51.088;13.732;2023-05-20T07:18:39;19.27;;;17.33;;
14992;SDS011;7592;51.088;13.732;2023-05-20T07:23:32;21.80;;;19.57;;
14992;SDS011;7592;51.088;13.732;2023-05-20T07:28:24;23.30;;;20.20;;
14992;SDS011;7592;51.088;13.732;2023-05-20T07:33:17;23.07;;;20.73;;
14992;SDS011;7592;51.088;13.732;2023-05-20T07:38:11;22.80;;;20.43;;
14992;SDS011;7592;51.088;13.732;2023-05-20T07:43:04;23.90;;;18.83;;
14992;SDS011;7592;51.088;13.732;2023-05-20T07:47:56;21.23;;;19.23;;
14992;SDS011;7592;51.088;13.732;2023-05-20T07:52:48;20.93;;;18.93;;
14992;SDS011;7592;51.088;13.732;2023-05-20T07:57:50;20.57;;;18.40;;
14992;SDS011;7592;51.088;13.732;2023-05-20T08:02:43;19.50;;;17.63;;
14992;SDS011;7592;51.088;13.732;2023-05-20T08:07:40;18.43;;;16.73;;
14992;SDS011;7592;51.088;13.732;2023-05-20T08:12:33;19.30;;;17.50;;
14992;SDS011;7592;51.088;13.732;2023-05-20T08:17:26;16.70;;;15.17;;
14992;SDS011;7592;51.088;13.732;2023-05-20T08:22:18;18.92;;;17.10;;
14992;SDS011;7592;51.088;13.732;2023-05-20T08:27:11;17.65;;;15.95;;
14992;SDS011;7592;51.088;13.732;2023-05-20T08:32:03;15.45;;;14.05;;
14992;SDS011;7592;51.088;13.732;2023-05-20T08:36:57;15.88;;;14.40;;
14992;SDS011;7592;51.088;13.732;2023-05-20T08:41:49;16.95;;;15.55;;
14992;SDS011;7592;51.088;13.732;2023-05-20T08:46:42;18.33;;;16.83;;
14992;SDS011;7592;51.088;13.732;2023-05-20T08:51:35;18.33;;;16.42;;
14992;SDS011;7592;51.088;13.732;2023-05-20T08:56:28;18.55;;;17.08;;
14992;SDS011;7592;51.088;13.732;2023-05-20T09:01:24;16.83;;;15.23;;
14992;SDS011;7592;51.088;13.732;2023-05-20T09:06:16;16.45;;;14.93;;
14992;SDS011;7592;51.088;13.732;2023-05-20T09:11:12;14.23;;;13.13;;
14992;SDS011;7592;51.088;13.732;2023-05-20T09:16:04;17.98;;;16.35;;
14992;SDS011;7592;51.088;13.732;2023-05-20T09:20:57;16.88;;;15.27;;
14992;SDS011;7592;51.088;13.732;2023-05-20T09:25:54;17.20;;;15.60;;
14992;SDS011;7592;51.088;13.732;2023-05-20T09:30:47;15.07;;;13.57;;
14992;SDS011;7592;51.088;13.732;2023-05-20T09:35:42;16.05;;;14.75;;
14992;SDS011;7592;51.088;13.732;2023-05-20T09:40:34;16.35;;;14.85;;
14992;SDS011;7592;51.088;13.732;2023-05-20T09:45:30;18.10;;;16.38;;
14992;SDS011;7592;51.088;13.732;2023-05-20T09:50:23;15.20;;;13.90;;
14992;SDS011;7592;51.088;13.732;2023-05-20T09:55:17;15.43;;;14.07;;
14992;SDS011;7592;51.088;13.732;2023-05-20T10:00:11;17.92;;;14.93;;
14992;SDS011;7592;51.088;13.732;2023-05-20T10:05:06;14.95;;;13.65;;
14992;SDS011;7592;51.088;13.732;2023-05-20T10:10:13;15.23;;;13.90;;
14992;SDS011;7592;51.088;13.732;2023-05-20T10:20:12;14.25;;;13.10;;
14992;SDS011;7592;51.088;13.732;2023-05-20T10:25:04;14.50;;;13.15;;
14992;SDS011;7592;51.088;13.732;2023-05-20T10:29:59;14.43;;;13.27;;
14992;SDS011;7592;51.088;13.732;2023-05-20T10:34:51;14.40;;;13.10;;
14992;SDS011;7592;51.088;13.732;2023-05-20T10:39:44;14.10;;;12.55;;
14992;SDS011;7592;51.088;13.732;2023-05-20T10:44:43;12.85;;;11.77;;
14992;SDS011;7592;51.088;13.732;2023-05-20T10:49:43;14.23;;;13.13;;
14992;SDS011;7592;51.088;13.732;2023-05-20T10:54:45;15.30;;;13.80;;
14992;SDS011;7592;51.088;13.732;2023-05-20T10:59:42;15.30;;;14.07;;
14992;SDS011;7592;51.088;13.732;2023-05-20T11:04:35;14.63;;;13.35;;
14992;SDS011;7592;51.088;13.732;2023-05-20T11:09:28;13.93;;;12.55;;
14992;SDS011;7592;51.088;13.732;2023-05-20T11:14:22;14.00;;;12.65;;
14992;SDS011;7592;51.088;13.732;2023-05-20T11:19:14;15.27;;;13.85;;
14992;SDS011;7592;51.088;13.732;2023-05-20T11:24:07;15.77;;;14.20;;
14992;SDS011;7592;51.088;13.732;2023-05-20T11:28:59;14.53;;;13.30;;
14992;SDS011;7592;51.088;13.732;2023-05-20T11:33:52;15.00;;;13.60;;
14992;SDS011;7592;51.088;13.732;2023-05-20T11:38:47;16.30;;;14.27;;
14992;SDS011;7592;51.088;13.732;2023-05-20T11:43:39;14.97;;;13.43;;
14992;SDS011;7592;51.088;13.732;2023-05-20T11:48:33;14.10;;;12.60;;
14992;SDS011;7592;51.088;13.732;2023-05-20T11:53:26;14.83;;;13.43;;
14992;SDS011;7592;51.088;13.732;2023-05-20T11:58:19;14.77;;;13.47;;
14992;SDS011;7592;51.088;13.732;2023-05-20T12:03:13;14.73;;;13.37;;
14992;SDS011;7592;51.088;13.732;2023-05-20T12:08:07;14.33;;;12.67;;
14992;SDS011;7592;51.088;13.732;2023-05-20T12:12:59;13.57;;;12.33;;
14992;SDS011;7592;51.088;13.732;2023-05-20T12:17:52;14.47;;;13.13;;
14992;SDS011;7592;51.088;13.732;2023-05-20T12:22:45;15.73;;;14.20;;
14992;SDS011;7592;51.088;13.732;2023-05-20T12:27:38;14.57;;;13.47;;
14992;SDS011;7592;51.088;13.732;2023-05-20T12:32:30;14.70;;;13.20;;
14992;SDS011;7592;51.088;13.732;2023-05-20T12:37:22;14.90;;;13.30;;
14992;SDS011;7592;51.088;13.732;2023-05-20T12:42:15;14.33;;;13.13;;
14992;SDS011;7592;51.088;13.732;2023-05-20T12:47:08;17.40;;;14.47;;
14992;SDS011;7592;51.088;13.732;2023-05-20T12:52:00;15.23;;;13.17;;
14992;SDS011;7592;51.088;13.732;2023-05-20T12:56:59;16.40;;;13.17;;
14992;SDS011;7592;51.088;13.732;2023-05-20T13:01:51;15.20;;;13.63;;
14992;SDS011;7592;51.088;13.732;2023-05-20T13:06:43;15.40;;;13.90;;
14992;SDS011;7592;51.088;13.732;2023-05-20T13:11:35;15.77;;;13.93;;
14992;SDS011;7592;51.088;13.732;2023-05-20T13:16:27;15.73;;;14.20;;
14992;SDS011;7592;51.088;13.732;2023-05-20T13:21:19;19.73;;;16.57;;
14992;SDS011;7592;51.088;13.732;2023-05-20T13:26:12;21.63;;;13.83;;
14992;SDS011;7592;51.088;13.732;2023-05-20T13:31:04;15.13;;;13.80;;
14992;SDS011;7592;51.088;13.732;2023-05-20T13:36:01;15.60;;;14.10;;
14992;SDS011;7592;51.088;13.732;2023-05-20T13:40:53;14.97;;;13.47;;
14992;SDS011;7592;51.088;13.732;2023-05-20T13:45:47;14.17;;;12.77;;
14992;SDS011;7592;51.088;13.732;2023-05-20T13:50:39;12.60;;;11.67;;
14992;SDS011;7592;51.088;13.732;2023-05-20T13:55:31;14.47;;;13.17;;
14992;SDS011;7592;51.088;13.732;2023-05-20T14:00:24;13.10;;;11.80;;
14992;SDS011;7592;51.088;13.732;2023-05-20T14:05:16;13.63;;;12.40;;
14992;SDS011;7592;51.088;13.732;2023-05-20T14:10:10;15.10;;;11.77;;
14992;SDS011;7592;51.088;13.732;2023-05-20T14:15:02;14.87;;;13.00;;
14992;SDS011;7592;51.088;13.732;2023-05-20T14:19:56;17.73;;;14.30;;
14992;SDS011;7592;51.088;13.732;2023-05-20T14:24:48;15.07;;;12.93;;
14992;SDS011;7592;51.088;13.732;2023-05-20T14:29:41;14.30;;;12.70;;
14992;SDS011;7592;51.088;13.732;2023-05-20T14:34:34;15.07;;;13.47;;
14992;SDS011;7592;51.088;13.732;2023-05-20T14:39:26;18.03;;;14.00;;
14992;SDS011;7592;51.088;13.732;2023-05-20T14:44:19;14.20;;;12.77;;
14992;SDS011;7592;51.088;13.732;2023-05-20T14:49:11;13.97;;;12.70;;
14992;SDS011;7592;51.088;13.732;2023-05-20T14:54:04;14.10;;;12.80;;
14992;SDS011;7592;51.088;13.732;2023-05-20T14:58:57;14.87;;;13.40;;
14992;SDS011;7592;51.088;13.732;2023-05-20T15:03:49;15.73;;;14.23;;
14992;SDS011;7592;51.088;13.732;2023-05-20T15:08:41;17.90;;;14.97;;
14992;SDS011;7592;51.088;13.732;2023-05-20T15:13:33;16.60;;;14.43;;
14992;SDS011;7592;51.088;13.732;2023-05-20T15:18:25;15.70;;;14.10;;
14992;SDS011;7592;51.088;13.732;2023-05-20T15:23:18;16.60;;;15.00;;
14992;SDS011;7592;51.088;13.732;2023-05-20T15:28:10;17.20;;;14.97;;
14992;SDS011;7592;51.088;13.732;2023-05-20T15:33:02;15.13;;;13.73;;
14992;SDS011;7592;51.088;13.732;2023-05-20T15:37:55;17.20;;;13.73;;
14992;SDS011;7592;51.088;13.732;2023-05-20T15:42:47;15.90;;;14.37;;
14992;SDS011;7592;51.088;13.732;2023-05-20T15:47:39;16.60;;;14.03;;
14992;SDS011;7592;51.088;13.732;2023-05-20T15:52:33;15.67;;;13.97;;
14992;SDS011;7592;51.088;13.732;2023-05-20T15:57:26;18.40;;;14.70;;
14992;SDS011;7592;51.088;13.732;2023-05-20T16:02:19;15.47;;;14.17;;
14992;SDS011;7592;51.088;13.732;2023-05-20T16:07:13;17.77;;;15.47;;
14992;SDS011;7592;51.088;13.732;2023-05-20T16:12:05;16.60;;;14.33;;
14992;SDS011;7592;51.088;13.732;2023-05-20T16:16:57;17.40;;;15.50;;
14992;SDS011;7592;51.088;13.732;2023-05-20T16:21:49;17.37;;;15.80;;
14992;SDS011;7592;51.088;13.732;2023-05-20T16:26:42;16.77;;;15.17;;
14992;SDS011;7592;51.088;13.732;2023-05-20T16:31:34;15.03;;;13.53;;
14992;SDS011;7592;51.088;13.732;2023-05-20T16:36:26;15.53;;;13.87;;
14992;SDS011;7592;51.088;13.732;2023-05-20T16:41:18;16.40;;;14.90;;
14992;SDS011;7592;51.088;13.732;2023-05-20T16:46:11;15.47;;;13.90;;
14992;SDS011;7592;51.088;13.732;2023-05-20T16:51:05;15.90;;;14.40;;
14992;SDS011;7592;51.088;13.732;2023-05-20T16:55:57;16.20;;;14.50;;
14992;SDS011;7592;51.088;13.732;2023-05-20T17:00:50;16.77;;;15.27;;
14992;SDS011;7592;51.088;13.732;2023-05-20T17:05:42;14.47;;;13.10;;
14992;SDS011;7592;51.088;13.732;2023-05-20T17:10:34;15.00;;;13.57;;
14992;SDS011;7592;51.088;13.732;2023-05-20T17:15:27;14.60;;;13.30;;
14992;SDS011;7592;51.088;13.732;2023-05-20T17:20:19;14.27;;;12.87;;
14992;SDS011;7592;51.088;13.732;2023-05-20T17:25:11;16.43;;;13.00;;
14992;SDS011;7592;51.088;13.732;2023-05-20T17:30:04;15.63;;;12.13;;
14992;SDS011;7592;51.088;13.732;2023-05-20T17:34:58;13.53;;;11.43;;
14992;SDS011;7592;51.088;13.732;2023-05-20T17:39:50;11.80;;;10.60;;
14992;SDS011;7592;51.088;13.732;2023-05-20T17:44:42;13.23;;;11.43;;
14992;SDS011;7592;51.088;13.732;2023-05-20T17:49:34;13.10;;;10.97;;
14992;SDS011;7592;51.088;13.732;2023-05-20T17:54:26;12.33;;;11.17;;
14992;SDS011;7592;51.088;13.732;2023-05-20T17:59:19;15.17;;;11.93;;
14992;SDS011;7592;51.088;13.732;2023-05-20T18:04:11;12.40;;;11.30;;
14992;SDS011;7592;51.088;13.732;2023-05-20T18:09:03;13.73;;;12.43;;
14992;SDS011;7592;51.088;13.732;2023-05-20T18:13:57;14.27;;;12.77;;
14992;SDS011;7592;51.088;13.732;2023-05-20T18:18:52;12.60;;;11.47;;
14992;SDS011;7592;51.088;13.732;2023-05-20T18:23:45;15.67;;;11.13;;
14992;SDS011;7592;51.088;13.732;2023-05-20T18:28:38;14.03;;;12.53;;
14992;SDS011;7592;51.088;13.732;2023-05-20T18:33:30;13.17;;;11.97;;
14992;SDS011;7592;51.088;13.732;2023-05-20T18:38:22;13.40;;;12.07;;
14992;SDS011;7592;51.088;13.732;2023-05-20T18:43:14;12.77;;;11.57;;
14992;SDS011;7592;51.088;13.732;2023-05-20T18:48:08;12.70;;;11.60;;
14992;SDS011;7592;51.088;13.732;2023-05-20T18:53:00;17.53;;;12.23;;
14992;SDS011;7592;51.088;13.732;2023-05-20T18:57:52;12.20;;;11.07;;
14992;SDS011;7592;51.088;13.732;2023-05-20T19:02:44;13.90;;;12.60;;
14992;SDS011;7592;51.088;13.732;2023-05-20T19:07:37;13.77;;;12.57;;
14992;SDS011;7592;51.088;13.732;2023-05-20T19:12:29;13.37;;;11.97;;
14992;SDS011;7592;51.088;13.732;2023-05-20T19:17:22;13.77;;;11.93;;
14992;SDS011;7592;51.088;13.732;2023-05-20T19:22:14;13.77;;;12.50;;
14992;SDS011;7592;51.088;13.732;2023-05-20T19:27:06;14.37;;;13.07;;
14992;SDS011;7592;51.088;13.732;2023-05-20T19:31:58;15.57;;;14.00;;
14992;SDS011;7592;51.088;13.732;2023-05-20T19:36:50;14.93;;;13.47;;
14992;SDS011;7592;51.088;13.732;2023-05-20T19:41:43;15.27;;;13.87;;
14992;SDS011;7592;51.088;13.732;2023-05-20T19:46:35;15.60;;;14.10;;
14992;SDS011;7592;51.088;13.732;2023-05-20T19:51:27;17.87;;;15.77;;
14992;SDS011;7592;51.088;13.732;2023-05-20T19:56:19;14.47;;;13.13;;
14992;SDS011;7592;51.088;13.732;2023-05-20T20:01:14;18.07;;;16.23;;
14992;SDS011;7592;51.088;13.732;2023-05-20T20:06:10;15.43;;;14.07;;
14992;SDS011;7592;51.088;13.732;2023-05-20T20:11:03;17.03;;;15.37;;
14992;SDS011;7592;51.088;13.732;2023-05-20T20:15:59;16.50;;;15.00;;
14992;SDS011;7592;51.088;13.732;2023-05-20T20:20:52;18.73;;;16.83;;
14992;SDS011;7592;51.088;13.732;2023-05-20T20:25:44;16.40;;;14.90;;
14992;SDS011;7592;51.088;13.732;2023-05-20T20:30:38;17.27;;;15.67;;
14992;SDS011;7592;51.088;13.732;2023-05-20T20:35:31;16.67;;;15.07;;
14992;SDS011;7592;51.088;13.732;2023-05-20T20:40:24;21.10;;;17.50;;
14992;SDS011;7592;51.088;13.732;2023-05-20T20:45:19;18.03;;;16.33;;
14992;SDS011;7592;51.088;13.732;2023-05-20T20:50:13;18.03;;;16.30;;
14992;SDS011;7592;51.088;13.732;2023-05-20T20:55:05;17.87;;;16.30;;
14992;SDS011;7592;51.088;13.732;2023-05-20T20:59:58;18.90;;;17.13;;
14992;SDS011;7592;51.088;13.732;2023-05-20T21:04:50;20.43;;;18.37;;
14992;SDS011;7592;51.088;13.732;2023-05-20T21:09:43;21.00;;;18.90;;
14992;SDS011;7592;51.088;13.732;2023-05-20T21:14:35;20.80;;;18.77;;
14992;SDS011;7592;51.088;13.732;2023-05-20T21:19:28;23.50;;;20.13;;
14992;SDS011;7592;51.088;13.732;2023-05-20T21:24:20;21.60;;;19.33;;
14992;SDS011;7592;51.088;13.732;2023-05-20T21:29:12;22.97;;;20.80;;
14992;SDS011;7592;51.088;13.732;2023-05-20T21:34:04;20.80;;;18.87;;
14992;SDS011;7592;51.088;13.732;2023-05-20T21:38:56;21.57;;;19.47;;
14992;SDS011;7592;51.088;13.732;2023-05-20T21:43:48;22.30;;;19.90;;
14992;SDS011;7592;51.088;13.732;2023-05-20T21:48:41;22.63;;;20.43;;
14992;SDS011;7592;51.088;13.732;2023-05-20T21:53:33;22.10;;;20.10;;
14992;SDS011;7592;51.088;13.732;2023-05-20T21:58:25;22.40;;;20.20;;
14992;SDS011;7592;51.088;13.732;2023-05-20T22:03:17;23.23;;;20.83;;
14992;SDS011;7592;51.088;13.732;2023-05-20T22:08:11;23.20;;;20.77;;
14992;SDS011;7592;51.088;13.732;2023-05-20T22:13:03;23.10;;;20.77;;
14992;SDS011;7592;51.088;13.732;2023-05-20T22:17:56;23.40;;;21.20;;
14992;SDS011;7592;51.088;13.732;2023-05-20T22:22:49;24.10;;;21.53;;
14992;SDS011;7592;51.088;13.732;2023-05-20T22:27:41;24.67;;;22.17;;
14992;SDS011;7592;51.088;13.732;2023-05-20T22:32:34;24.20;;;21.80;;
14992;SDS011;7592;51.088;13.732;2023-05-20T22:37:27;24.90;;;22.40;;
14992;SDS011;7592;51.088;13.732;2023-05-20T22:42:20;25.27;;;22.73;;
14992;SDS011;7592;51.088;13.732;2023-05-20T22:47:12;26.00;;;23.30;;
14992;SDS011;7592;51.088;13.732;2023-05-20T22:52:05;27.57;;;23.27;;
14992;SDS011;7592;51.088;13.732;2023-05-20T22:56:58;25.20;;;22.80;;
14992;SDS011;7592;51.088;13.732;2023-05-20T23:01:50;26.20;;;23.17;;
14992;SDS011;7592;51.088;13.732;2023-05-20T23:06:43;27.40;;;24.70;;
14992;SDS011;7592;51.088;13.732;2023-05-20T23:11:36;27.43;;;24.50;;
14992;SDS011;7592;51.088;13.732;2023-05-20T23:16:28;28.47;;;24.47;;
14992;SDS011;7592;51.088;13.732;2023-05-20T23:21:20;27.17;;;24.47;;
14992;SDS011;7592;51.088;13.732;2023-05-20T23:26:12;25.67;;;23.10;;
14992;SDS011;7592;51.088;13.732;2023-05-20T23:31:05;26.37;;;23.53;;
14992;SDS011;7592;51.088;13.732;2023-05-20T23:35:57;26.27;;;23.53;;
14992;SDS011;7592;51.088;13.732;2023-05-20T23:40:49;26.87;;;24.43;;
14992;SDS011;7592;51.088;13.732;2023-05-20T23:45:41;26.17;;;23.67;;
14992;SDS011;7592;51.088;13.732;2023-05-20T23:50:33;25.57;;;23.07;;
14992;SDS011;7592;51.088;13.732;2023-05-20T23:55:26;26.53;;;23.93;;
